Latest Weather Observations for Hobart Airport

IDT60901

Issued at 6:01 pm EST Monday 25 September 2017 (issued every 10 minutes, with the page automatically refreshed every 10 minutes)

About weather observations | Map of Hobart area stations | Latest observations for Hobart area | Other Formats
Station Details ID: 094008 Name: HOBART AIRPORT Lat: -42.83 Lon: 147.50 Height: 4.0 m
Data from the previous 72 hours. | See also: Recent months at Hobart Airport
Date/Time
EST
Temp
°C
App
Temp
°C
Dew
Point
°C
Rel
Hum
%
Delta-T
°C
Wind Press
QNH
hPa
Press
MSL
hPa
Rain since
9am
mm
Dir  Spd
km/h
Gust
km/h
Spd
kts
Gust
kts
25/05:30pm 9.0 2.4 1.8 60 3.0 SW 26 37 14 20 1005.4 1005.4 0.0
25/05:00pm 9.0 4.1 4.3 72 2.1 S 19 24 10 13 1004.8 1004.8 0.0
25/04:30pm 9.3 3.1 4.4 71 2.2 SSW 26 35 14 19 1004.3 1004.3 0.0
25/04:00pm 9.2 2.3 4.7 73 2.0 S 30 37 16 20 1003.6 1003.6 0.0
25/03:30pm 9.7 2.8 4.8 71 2.2 S 30 37 16 20 1003.2 1003.2 0.0
25/03:00pm 10.6 4.2 5.4 70 2.4 S 28 35 15 19 1002.5 1002.5 0.0
25/02:30pm 11.3 3.7 2.6 55 3.8 SW 32 41 17 22 1001.9 1001.9 0.0
25/02:00pm 11.1 3.6 3.4 59 3.4 SSW 32 43 17 23 1001.4 1001.4 0.0
25/01:30pm 12.4 5.8 2.3 50 4.4 SSW 26 37 14 20 1000.9 1000.9 0.0
25/01:00pm 12.9 7.0 1.6 46 4.9 SW 22 30 12 16 1000.5 1000.5 0.0
25/12:30pm 13.0 7.1 1.4 45 5.0 SW 22 32 12 17 1000.3 1000.3 0.0
25/12:00pm 12.7 6.7 1.3 45 4.9 SW 22 32 12 17 1000.1 1000.1 0.0
25/11:30am 12.7 7.6 0.9 44 5.0 SW 17 32 9 17 999.7 999.7 0.0
25/11:00am 12.5 7.5 1.3 46 4.8 WNW 17 26 9 14 999.3 999.3 0.0
25/10:30am 11.8 6.4 1.5 49 4.4 W 19 26 10 14 999.2 999.2 0.0
25/10:00am 11.2 5.2 1.0 49 4.3 WNW 22 32 12 17 998.8 998.8 0.0
25/09:30am 11.0 4.2 0.7 49 4.3 WNW 26 35 14 19 998.4 998.4 0.0
25/09:00am 10.6 3.4 0.7 50 4.1 WNW 28 37 15 20 998.0 998.0 0.4
25/08:30am 10.4 2.3 -0.5 47 4.3 WNW 32 41 17 22 997.4 997.4 0.2
25/08:00am 10.0 1.3 -0.8 47 4.3 WNW 35 43 19 23 996.8 996.9 0.2
25/07:30am 9.5 1.7 -0.9 48 4.1 WNW 30 41 16 22 996.4 996.5 0.2
25/07:00am 8.8 2.4 -1.5 48 4.0 NW 22 33 12 18 996.1 996.2 0.2
25/06:30am 8.4 1.0 -0.5 53 3.5 NW 28 35 15 19 995.5 995.6 0.2
25/06:00am 8.3 -0.1 -0.9 52 3.6 NW 33 41 18 22 995.2 995.3 0.2
25/05:30am 7.9 0.9 -0.5 55 3.3 WNW 26 37 14 20 994.8 994.9 0.2
25/05:00am 7.9 2.2 -0.8 54 3.4 WNW 19 26 10 14 994.8 994.9 0.2
25/04:30am 8.0 2.3 -0.4 55 3.3 W 19 30 10 16 994.4 994.5 0.2
25/04:00am 8.6 2.3 -0.8 51 3.7 WNW 22 37 12 20 993.5 993.6 0.2
25/03:30am 8.7 2.1 -0.7 51 3.7 WNW 24 33 13 18 992.6 992.7 0.2
25/03:00am 8.7 3.1 1.5 60 3.0 WNW 20 28 11 15 992.9 993.0 0.2
25/02:30am 9.4 4.6 2.4 61 3.0 WNW 17 26 9 14 992.8 992.9 0.2
25/02:00am 8.8 5.8 4.1 72 2.1 WSW 9 11 5 6 992.5 992.6 0.2
25/01:30am 9.5 6.6 4.9 73 2.1 SW 9 13 5 7 992.1 992.2 0.2
25/01:00am 9.4 5.0 4.8 73 2.1 WSW 17 24 9 13 991.6 991.6 0.2
25/12:30am 9.9 4.5 4.6 69 2.4 SW 22 32 12 17 991.3 991.3 0.2
25/12:00am 10.3 7.2 7.2 81 1.5 WSW 13 15 7 8 991.0 991.0 0.2
 
Date/Time
EST
Temp
°C
App
Temp
°C
Dew
Point
°C
Rel
Hum
%
Delta-T
°C
Wind Press
QNH
hPa
Press
MSL
hPa
Rain since
9am
mm
Dir  Spd
km/h
Gust
km/h
Spd
kts
Gust
kts
24/11:30pm 10.5 7.6 8.1 85 1.2 WSW 13 17 7 9 990.7 990.7 0.2
24/11:00pm 11.0 7.1 7.3 78 1.8 WSW 17 26 9 14 990.3 990.3 0.0
24/10:30pm 12.1 9.1 5.8 65 2.9 WNW 11 15 6 8 989.9 989.9 0.0
24/10:00pm 12.6 8.2 4.6 58 3.7 WNW 17 28 9 15 989.6 989.6 0.0
24/09:30pm 12.7 8.7 4.7 58 3.7 NW 15 22 8 12 989.2 989.2 0.0
24/09:00pm 12.7 10.0 5.5 61 3.4 NW 9 11 5 6 989.1 989.1 0.0
24/08:30pm 13.1 8.3 4.5 56 3.9 NW 19 28 10 15 988.8 988.8 0.0
24/08:00pm 13.1 7.7 4.7 56 3.9 NW 22 28 12 15 988.6 988.6 0.0
24/07:30pm 13.3 8.3 4.5 55 4.0 NW 20 28 11 15 988.5 988.5 0.0
24/07:00pm 13.3 8.6 5.3 58 3.8 NW 19 28 10 15 988.2 988.2 0.0
24/06:30pm 13.8 9.8 5.1 55 4.1 NNW 15 20 8 11 987.9 987.9 0.0
24/06:00pm 14.0 7.1 4.6 53 4.4 NW 30 41 16 22 987.5 987.5 0.0
24/05:30pm 14.6 8.1 4.9 52 4.5 NW 28 43 15 23 987.4 987.4 0.0
24/05:00pm 15.1 7.5 3.7 46 5.3 NW 33 46 18 25 987.0 987.0 0.0
24/04:30pm 15.5 8.5 4.0 46 5.3 NW 30 39 16 21 986.7 986.7 0.0
24/04:00pm 17.0 9.0 3.9 41 6.2 NW 35 50 19 27 986.4 986.4 0.0
24/03:30pm 16.7 8.6 3.4 41 6.1 NW 35 52 19 28 986.3 986.3 0.0
24/03:24pm 16.1 8.6 4.3 45 5.5 NW 33 52 18 28 986.2 986.2 0.0
24/03:00pm 16.0 8.7 4.7 47 5.4 NW 32 43 17 23 986.2 986.2 0.0
24/02:30pm 16.8 9.0 5.0 45 5.6 NW 35 54 19 29 986.1 986.1 0.0
24/02:00pm 17.2 8.0 3.3 39 6.5 NW 41 52 22 28 986.1 986.1 0.0
24/01:42pm 16.7 8.8 4.3 43 5.8 NW 35 54 19 29 986.3 986.3 0.0
24/01:30pm 16.7 7.7 4.3 43 5.8 NW 41 56 22 30 986.2 986.2 0.0
24/01:00pm 16.1 8.5 3.1 41 6.0 NW 32 48 17 26 986.4 986.4 0.0
24/12:30pm 16.8 9.3 4.5 44 5.8 NW 33 48 18 26 986.5 986.5 0.0
24/12:05pm 16.0 9.3 3.8 44 5.6 NW 28 48 15 26 986.7 986.7 0.0
24/12:00pm 16.1 10.0 4.6 46 5.5 NW 26 37 14 20 986.8 986.8 0.0
24/11:30am 16.1 8.7 4.8 47 5.3 NW 33 43 18 23 986.8 986.8 0.0
24/11:00am 15.6 8.0 4.1 46 5.4 NW 33 48 18 26 987.1 987.1 0.0
24/10:47am 15.6 8.3 4.7 48 5.1 NW 32 50 17 27 987.0 987.0 0.0
24/10:30am 14.8 6.9 4.4 49 4.8 NW 35 48 19 26 986.9 986.9 0.0
24/10:00am 13.9 6.5 4.2 52 4.5 NW 32 48 17 26 987.4 987.4 0.0
24/09:55am 13.9 7.0 4.5 53 4.3 NW 30 48 16 26 987.4 987.4 0.0
24/09:30am 14.3 7.5 5.0 53 4.3 NW 30 41 16 22 987.3 987.3 0.0
24/09:00am 14.8 7.6 5.2 52 4.6 NW 32 46 17 25 987.1 987.1 13.8
24/08:30am 15.1 8.8 5.8 53 4.5 NW 28 41 15 22 987.3 987.3 13.6
24/08:00am 13.8 9.0 5.4 57 4.0 NW 20 33 11 18 987.4 987.4 13.6
24/07:30am 13.0 8.7 5.4 60 3.5 NNW 17 26 9 14 987.3 987.3 13.6
24/07:00am 12.1 7.9 5.5 64 3.1 NNW 17 24 9 13 987.1 987.1 13.6
24/06:30am 12.1 5.9 4.5 59 3.5 NW 26 33 14 18 987.1 987.1 13.6
24/06:00am 11.6 5.9 4.7 62 3.2 NNW 24 33 13 18 987.1 987.1 13.6
24/05:30am 11.7 6.8 5.0 63 3.1 NNW 20 32 11 17 986.9 986.9 13.6
24/05:00am 11.8 6.4 4.6 61 3.3 NNW 22 30 12 16 986.5 986.5 13.6
24/04:30am 12.1 7.1 4.8 61 3.3 NNW 20 30 11 16 986.4 986.4 13.6
24/04:00am 12.3 7.1 5.5 63 3.2 NNW 22 35 12 19 986.1 986.1 13.6
24/03:30am 12.5 6.5 5.5 62 3.3 NNW 26 35 14 19 985.6 985.6 13.6
24/03:00am 12.6 5.9 5.7 63 3.3 N 30 43 16 23 985.1 985.1 13.6
24/02:30am 13.0 7.0 5.4 60 3.5 NNW 26 39 14 21 984.6 984.6 13.6
24/02:04am 13.4 6.9 4.9 56 3.9 NNW 28 54 15 29 984.3 984.3 13.6
24/02:00am 13.3 7.6 5.0 57 3.9 NNW 24 46 13 25 984.2 984.2 13.6
24/01:30am 13.4 8.6 4.9 56 3.9 NNW 19 33 10 18 984.1 984.1 13.6
24/01:00am 12.2 7.1 6.1 66 2.9 NNW 22 39 12 21 984.6 984.6 13.6
24/12:30am 13.0 7.9 5.9 62 3.4 NNW 22 33 12 18 984.7 984.7 13.6
24/12:00am 12.6 7.9 6.1 64 3.1 NNW 20 32 11 17 985.4 985.4 13.6
 
Date/Time
EST
Temp
°C
App
Temp
°C
Dew
Point
°C
Rel
Hum
%
Delta-T
°C
Wind Press
QNH
hPa
Press
MSL
hPa
Rain since
9am
mm
Dir  Spd
km/h
Gust
km/h
Spd
kts
Gust
kts
23/11:30pm 13.6 7.0 5.9 59 3.7 NW 30 43 16 23 985.4 985.4 13.6
23/11:00pm 13.5 7.3 6.0 60 3.6 WNW 28 35 15 19 985.5 985.5 13.6
23/10:48pm 13.8 7.9 5.7 58 3.8 WNW 26 35 14 19 985.6 985.6 13.6
23/10:30pm 13.3 10.7 7.9 70 2.7 NNW 11 15 6 8 986.0 986.0 13.6
23/10:00pm 13.0 10.4 9.3 78 1.9 W 13 15 7 8 986.8 986.8 13.6
23/09:30pm 13.4 10.4 9.3 76 2.1 NNW 15 22 8 12 987.2 987.2 13.6
23/09:00pm 13.6 11.1 11.0 84 1.4 NNE 15 19 8 10 987.3 987.3 13.6
23/08:30pm 13.4 11.1 11.7 89 0.9 N 15 19 8 10 988.1 988.1 13.6
23/08:28pm 13.4 11.1 11.7 89 0.9 N 15 19 8 10 988.2 988.2 13.6
23/08:18pm 13.5 11.5 11.6 88 1.0 NNW 13 19 7 10 988.5 988.5 13.6
23/08:13pm 13.5 10.5 11.8 89 0.9 NNW 19 39 10 21 988.6 988.6 13.4
23/08:05pm 13.6 9.3 11.9 89 0.9 WNW 26 39 14 21 989.2 989.2 11.8
23/08:00pm 14.0 10.2 12.4 90 0.9 W 24 35 13 19 989.1 989.1 9.0
23/07:56pm 14.1 11.1 12.5 90 0.9 W 20 28 11 15 988.9 988.9 6.2
23/07:51pm 14.0 13.5 12.2 89 1.0 W 6 22 3 12 988.5 988.5 3.6
23/07:47pm 14.3 14.5 11.7 84 1.4 WSW 2 13 1 7 988.0 988.0 1.8
23/07:45pm 14.6 15.1 11.7 83 1.6 CALM 0 0 0 0 987.7 987.7 1.8
23/07:36pm 14.4 14.5 11.6 83 1.5 SW 2 7 1 4 987.3 987.3 1.6
23/07:30pm 14.4 13.7 11.4 82 1.6 SW 6 9 3 5 987.3 987.3 1.6
23/07:00pm 14.2 13.4 11.6 84 1.4 NE 7 9 4 5 987.4 987.4 1.6
23/06:30pm 14.5 13.6 11.2 80 1.8 S 7 9 4 5 987.4 987.4 1.6
23/06:00pm 15.2 14.0 11.7 79 1.9 SSW 9 9 5 5 987.1 987.1 1.6
23/05:30pm 16.1 15.4 12.1 77 2.2 NE 7 11 4 6 987.8 987.8 1.6
23/05:00pm 16.8 16.1 11.5 71 2.9 N 6 9 3 5 988.2 988.2 1.6
23/04:30pm 17.2 15.3 10.5 64 3.6 NNW 11 15 6 8 989.2 989.2 1.6
23/04:00pm 17.2 14.9 10.3 64 3.7 NNE 13 17 7 9 989.0 989.0 1.6
23/03:30pm 17.3 15.2 11.1 67 3.3 NNE 13 17 7 9 988.1 988.1 1.6
23/03:00pm 16.3 13.3 10.7 69 3.0 NW 17 20 9 11 990.0 990.0 1.6
23/02:30pm 16.3 14.8 11.9 75 2.4 NNW 11 15 6 8 991.1 991.1 1.6
23/02:00pm 16.6 14.9 12.5 77 2.3 NNW 13 20 7 11 991.7 991.7 1.6
23/01:30pm 14.6 12.6 12.8 89 1.0 NNW 15 20 8 11 992.9 993.0 1.6
23/01:00pm 14.3 12.4 11.7 84 1.4 NW 13 17 7 9 993.4 993.5 1.2
23/12:30pm 14.8 11.6 11.3 79 1.9 NNW 19 26 10 14 993.6 993.7 0.8
23/12:00pm 14.6 12.1 11.1 79 1.9 NW 15 20 8 11 994.3 994.4 0.8
23/11:30am 15.1 12.5 10.8 75 2.3 NNW 15 26 8 14 994.2 994.3 0.8
23/11:00am 14.3 11.8 11.1 81 1.7 NNW 15 30 8 16 995.3 995.4 0.8
23/10:30am 14.2 12.5 11.2 82 1.6 NNW 11 17 6 9 995.8 995.9 0.6
23/10:00am 13.5 9.9 10.7 83 1.5 NNW 20 30 11 16 996.7 996.8 0.6
23/09:30am 12.9 8.8 10.2 84 1.4 NW 22 30 12 16 997.1 997.2 0.4
23/09:00am 11.5 7.8 9.5 87 1.0 NW 19 26 10 14 997.3 997.3 1.6
23/08:30am 10.4 7.6 8.6 89 0.9 N 13 17 7 9 996.1 996.2 1.6
23/08:00am 10.7 9.1 7.8 82 1.4 SSW 6 11 3 6 996.7 996.8 1.0
23/07:30am 10.1 7.9 7.8 86 1.1 NW 9 15 5 8 997.3 997.3 0.8
23/07:00am 10.9 9.1 7.2 78 1.8 NE 6 15 3 8 997.6 997.6 0.8
23/06:50am 10.5 6.6 6.9 78 1.7 NNE 17 24 9 13 997.5 997.5 0.8
23/06:34am 9.3 6.9 7.2 87 1.0 NNW 9 13 5 7 999.5 999.5 0.6
23/06:30am 9.2 6.8 7.1 87 1.0 NNW 9 11 5 6 999.2 999.2 0.6
23/06:00am 9.9 7.7 6.3 78 1.7 WNW 7 11 4 6 997.7 997.7 0.2
23/05:30am 8.8 7.0 7.1 89 0.8 ESE 6 9 3 5 998.0 998.0 0.2
23/05:00am 9.6 7.6 7.3 85 1.1 WNW 7 9 4 5 998.7 998.7 0.2
23/04:30am 10.2 7.7 8.2 87 1.0 NE 11 15 6 8 999.0 999.0 0.2
23/04:00am 11.4 7.8 6.8 73 2.2 N 15 26 8 14 999.7 999.7 0.2
23/03:30am 11.3 8.8 8.0 80 1.6 NNW 11 13 6 7 1001.4 1001.4 0.2
23/03:00am 11.2 8.4 8.4 83 1.4 N 13 20 7 11 1000.7 1000.7 0.2
23/02:30am 11.1 9.5 8.9 86 1.1 S 7 11 4 6 1001.1 1001.1 0.2
23/02:00am 12.3 10.0 9.1 81 1.6 NNW 11 15 6 8 1002.4 1002.4 0.2
23/01:58am 12.2 9.9 9.0 81 1.6 N 11 17 6 9 1002.3 1002.3 0.2
23/01:49am 12.2 9.5 8.8 80 1.7 N 13 20 7 11 1000.1 1000.1 0.0
23/01:30am 12.1 8.6 8.7 80 1.7 NNW 17 30 9 16 1002.4 1002.4 0.0
23/01:00am 12.5 8.0 8.5 76 2.0 NW 22 33 12 18 1002.3 1002.3 0.0
23/12:30am 13.1 8.9 8.1 71 2.5 NNW 20 28 11 15 1002.1 1002.1 0.0
23/12:00am 12.4 7.1 8.4 76 2.0 N 26 35 14 19 1002.7 1002.7 0.0
 
Date/Time
EST
Temp
°C
App
Temp
°C
Dew
Point
°C
Rel
Hum
%
Delta-T
°C
Wind Press
QNH
hPa
Press
MSL
hPa
Rain since
9am
mm
Dir  Spd
km/h
Gust
km/h
Spd
kts
Gust
kts
22/11:30pm 12.9 9.2 7.8 71 2.5 N 17 26 9 14 1002.5 1002.5 0.0
22/11:00pm 13.2 8.4 7.5 68 2.8 NNW 22 30 12 16 1003.6 1003.6 0.0
22/10:30pm 13.5 9.4 6.4 62 3.4 NNW 17 28 9 15 1003.7 1003.7 0.0
22/10:00pm 13.1 10.7 6.9 66 3.0 N 9 13 5 7 1003.9 1003.9 0.0
22/09:30pm 13.0 9.9 5.6 61 3.5 N 11 15 6 8 1003.9 1003.9 0.0
22/09:00pm 12.7 9.7 5.9 63 3.2 NNE 11 15 6 8 1004.2 1004.2 0.0
22/08:30pm 13.6 9.3 5.3 57 3.9 N 17 28 9 15 1004.5 1004.5 0.0
22/08:00pm 13.7 10.1 5.2 56 4.0 N 13 19 7 10 1004.4 1004.4 0.0
22/07:30pm 13.4 8.9 6.1 61 3.5 NE 19 24 10 13 1004.5 1004.5 0.0
22/07:00pm 13.5 10.0 5.4 58 3.8 ENE 13 17 7 9 1004.9 1004.9 0.0
22/06:30pm 13.5 9.1 6.4 62 3.4 NE 19 24 10 13 1004.7 1004.7 0.0

Latest Capital City Observations: Canberra | Sydney | Melbourne | Brisbane | Adelaide | Perth | Hobart | Darwin

Other Formats:

Comma delimited format used in spreadsheet applications
http://www.bom.gov.au/fwo/IDT60901/IDT60901.94975.axf

JavaScript Object Notation format (JSON) in row-major order
http://www.bom.gov.au/fwo/IDT60901/IDT60901.94975.json